Flight Track Log - Related Links

Times and Time Zones

All times are in EDT time to prevent confusion due to time zone crossing. See the N534QS flight status page for this flight to view local times or setup timezone preferences in your user account.

Time Position Orientation Groundspeed Altitude Reporting Facility
EDT Latitude Longitude Course Direction KTS MPH feet Rate Location/Type
Mon 06:14:18 PM 47.4353 -122.3103 181° South 154 177 1,400  Level Seattle Center
Mon 06:14:55 PM 47.4042 -122.3111 181° South 173 199 3,600 3,288 Climbing Seattle Center
Mon 06:16:02 PM 47.3397 -122.3106 180° South 244 281 7,100 3,045 Climbing Seattle Center
Mon 06:17:09 PM 47.3169 -122.1936 106° East 308 354 10,400 2,813 Climbing Seattle Center
Mon 06:18:10 PM 47.3444 -122.0572 73° East 351 404 13,100 2,852 Climbing Seattle Center
Mon 06:19:11 PM 47.3842 -121.9000 69° East 381 438 16,200 2,361 Climbing Seattle Center
Mon 06:20:12 PM 47.4189 -121.7636 69° East 400 460 17,900 2,066 Climbing Seattle Center
Mon 06:21:13 PM 47.4392 -121.5911 80° East 430 495 20,400 2,213 Climbing Seattle Center
Mon 06:22:14 PM 47.4297 -121.4089 94° East 446 513 22,400 2,244 Climbing Seattle Center
Mon 06:23:16 PM 47.4192 -121.1789 94° East 470 541 25,000 1,902 Climbing Seattle Center
Mon 06:24:17 PM 47.4081 -120.9772 95° East 485 558 26,300 1,820 Climbing Seattle Center
Mon 06:25:18 PM 47.3969 -120.7603 94° East 522 601 28,700 2,262 Climbing Seattle Center
Mon 06:26:19 PM 47.3856 -120.5500 94° East 519 597 30,900 1,869 Climbing Seattle Center
Mon 06:27:20 PM 47.3756 -120.3361 94° East 525 604 32,500 1,721 Climbing Seattle Center
Mon 06:28:21 PM 47.3639 -120.1219 95° East 526 605 34,400 1,574 Climbing Seattle Center
Mon 06:29:22 PM 47.3500 -119.9039 95° East 534 615 35,700 1,289 Climbing Seattle Center
Mon 06:30:22 PM 47.3375 -119.6833 95° East 541 623 37,000 1,328 Climbing Seattle Center
Mon 06:31:24 PM 47.3231 -119.4583 95° East 552 635 38,400 984 Climbing Seattle Center
Mon 06:32:24 PM 47.3075 -119.2303 96° East 561 646 39,000 298 Climbing Seattle Center
Mon 06:33:25 PM 47.2931 -118.9969 95° East 572 658 39,000 -49 Level Seattle Center
Mon 06:34:26 PM 47.2750 -118.7256 96° East 558 642 38,900  Descending Seattle Center
Mon 06:35:27 PM 47.2594 -118.5003 96° East 556 640 39,000 49 Climbing Seattle Center
Mon 06:36:28 PM 47.2439 -118.2725 96° East 561 646 39,000 -49 Level Seattle Center
Mon 06:37:29 PM 47.2261 -118.0458 97° East 563 648 38,900  Descending Seattle Center
Mon 06:38:30 PM 47.2167 -117.8197 93° East 558 642 39,000 49 Climbing Seattle Center
Mon 06:39:31 PM 47.2139 -117.5931 91° East 559 643 39,000  Level Seattle Center
Mon 06:40:32 PM 47.2097 -117.3733 92° East 546 628 39,000  Level Seattle Center
Mon 06:41:33 PM 47.2031 -117.1525 92° East 548 631 39,000  Level Seattle Center
Mon 06:42:34 PM 47.1978 -116.9256 92° East 562 647 39,000 541 Level Seattle Center
Mon 06:43:35 PM 47.1919 -116.6553 92° East 559 643 40,100 1,131 Climbing Seattle Center
Mon 06:44:36 PM 47.1844 -116.4322 93° East 553 636 41,300 1,140 Climbing Seattle Center
Mon 06:45:36 PM 47.1775 -116.2106 93° East 548 631 42,400 843 Climbing Seattle Center
Mon 06:46:37 PM 47.1703 -115.9928 93° East 540 621 43,000 443 Climbing Seattle Center
Mon 06:47:38 PM 47.1631 -115.7708 93° East 545 627 43,300 689 Climbing Seattle Center
Mon 06:48:39 PM 47.1542 -115.5525 93° East 539 620 44,400 787 Climbing Seattle Center
Mon 06:49:40 PM 47.1472 -115.3592 93° East 523 602 44,900 246 Climbing Seattle Center
Mon 06:50:41 PM 47.1558 -115.1031 87° East 531 611 44,900  Level Seattle Center
Mon 06:51:42 PM 47.1847 -114.8872 79° East 536 617 44,900 49 Level Seattle Center
Mon 06:52:43 PM 47.2133 -114.6753 79° East 534 615 45,000 65 Climbing Seattle Center
Mon 06:53:15 PM 47.2258 -114.5911 78° East 530 610 45,000  Level Salt Lake Center
Mon 06:54:17 PM 47.2625 -114.3414 78° East 526 605 45,000  Level Salt Lake Center
Mon 06:55:18 PM 47.2919 -114.1322 78° East 527 606 45,000  Level Salt Lake Center
Mon 06:56:20 PM 47.3175 -113.9231 80° East 521 600 45,000  Level Salt Lake Center
Mon 06:57:21 PM 47.3144 -113.7078 91° East 531 611 45,000  Level Salt Lake Center
Mon 06:58:23 PM 47.3006 -113.5003 96° East 516 594 45,000  Level Salt Lake Center
Mon 06:59:24 PM 47.2864 -113.2928 96° East 514 592 45,000 -49 Level Salt Lake Center
Mon 07:00:25 PM 47.2703 -113.0850 96° East 513 590 44,900  Descending Salt Lake Center
Mon 07:01:27 PM 47.2522 -112.8400 96° East 512 589 45,000 49 Climbing Salt Lake Center
Mon 07:02:28 PM 47.2372 -112.6331 96° East 512 589 45,000  Level Salt Lake Center
Mon 07:03:30 PM 47.2231 -112.4269 96° East 509 586 45,000  Level Salt Lake Center
Mon 07:04:31 PM 47.2056 -112.2219 97° East 508 585 45,000  Level Salt Lake Center
Mon 07:05:32 PM 47.1894 -112.0153 96° East 511 588 45,000  Level Salt Lake Center
Mon 07:06:34 PM 47.1728 -111.8100 97° East 511 588 45,000  Level Salt Lake Center
Mon 07:07:35 PM 47.1544 -111.6017 97° East 515 593 45,000  Level Salt Lake Center
Mon 07:08:36 PM 47.1325 -111.3494 97° East 523 602 45,000  Level Salt Lake Center
Mon 07:09:38 PM 47.1153 -111.1408 97° East 522 601 45,000  Level Salt Lake Center
Mon 07:10:39 PM 47.0956 -110.9328 98° East 522 601 45,000  Level Salt Lake Center
Mon 07:11:40 PM 47.0772 -110.7275 97° East 515 593 45,000  Level Salt Lake Center
Mon 07:12:42 PM 47.0575 -110.5219 98° East 515 593 45,000 -49 Level Salt Lake Center
Mon 07:13:43 PM 47.0381 -110.3169 98° East 511 588 44,900  Descending Salt Lake Center
Mon 07:14:45 PM 47.0178 -110.1139 98° East 510 587 45,000 49 Climbing Salt Lake Center
Mon 07:15:46 PM 46.9928 -109.8689 98° East 510 587 45,000  Level Salt Lake Center
Mon 07:16:47 PM 46.9753 -109.6586 97° East 520 598 45,000  Level Salt Lake Center
Mon 07:17:49 PM 46.9533 -109.4522 99° East 519 597 45,000 -49 Level Salt Lake Center
Mon 07:18:50 PM 46.9294 -109.2456 100° East 518 596 44,900  Descending Salt Lake Center
Mon 07:19:52 PM 46.9064 -109.0269 99° East 516 594 45,000 49 Climbing Salt Lake Center
Mon 07:20:53 PM 46.8842 -108.8319 99° East 511 588 45,000  Level Salt Lake Center
Mon 07:21:54 PM 46.8581 -108.6014 99° East 514 592 45,000  Level Salt Lake Center
Mon 07:22:56 PM 46.8353 -108.4006 99° East 518 596 45,000  Level Salt Lake Center
Mon 07:23:57 PM 46.8083 -108.1697 100° East 518 596 45,000  Level Salt Lake Center
Mon 07:24:59 PM 46.7869 -107.9769 99° East 507 583 45,000  Level Salt Lake Center
Mon 07:26:01 PM 46.7633 -107.7775 100° East 513 590 45,000  Level Salt Lake Center
Mon 07:27:02 PM 46.7356 -107.5519 100° East 510 587 45,000  Level Salt Lake Center
Mon 07:28:04 PM 46.7122 -107.3606 100° East 503 579 45,000  Level Salt Lake Center
Mon 07:29:05 PM 46.6836 -107.1356 100° East 504 580 45,000  Level Salt Lake Center
Mon 07:30:07 PM 46.6597 -106.9461 100° East 501 577 45,000  Level Salt Lake Center
Mon 07:31:09 PM 46.6350 -106.7553 101° East 501 577 45,000  Level Salt Lake Center
Mon 07:32:10 PM 46.6061 -106.5325 101° East 502 578 45,000  Level Salt Lake Center
Mon 07:33:12 PM 46.5808 -106.3419 101° East 502 578 45,000  Level Salt Lake Center
Mon 07:34:14 PM 46.5486 -106.1139 102° East 509 586 45,000  Level Salt Lake Center
Mon 07:35:15 PM 46.5222 -105.9181 101° East 514 592 45,000  Level Salt Lake Center
Mon 07:36:17 PM 46.4889 -105.6886 102° East 517 595 45,000  Level Salt Lake Center
Mon 07:37:19 PM 46.4606 -105.4947 102° East 516 594 45,000 -195 Level Salt Lake Center
Mon 07:38:20 PM 46.4339 -105.3022 101° East 513 590 44,600 -488 Descending Salt Lake Center
Mon 07:39:22 PM 46.4236 -105.0697 94° East 519 597 44,000 -532 Descending Salt Lake Center
Mon 07:40:24 PM 46.4147 -104.8675 94° East 522 601 43,500 -585 Descending Salt Lake Center
Mon 07:41:25 PM 46.4064 -104.6597 93° East 522 601 42,800 -634 Descending Salt Lake Center
Mon 07:42:27 PM 46.3981 -104.4533 93° East 519 597 42,200 -581 Descending Salt Lake Center
Mon 07:43:29 PM 46.3867 -104.2414 94° East 526 605 41,600 -585 Descending Salt Lake Center
Mon 07:44:30 PM 46.3742 -103.9867 94° East 530 610 41,000 -293 Descending Salt Lake Center
Mon 07:45:32 PM 46.3639 -103.7758 94° East 529 609 41,000  Level Salt Lake Center
Mon 07:46:34 PM 46.3519 -103.5661 95° East 527 606 41,000  Level Salt Lake Center
Mon 07:47:36 PM 46.3397 -103.3528 95° East 530 610 41,000  Level Salt Lake Center
Mon 07:48:01 PM 46.3375 -103.2669 92° East 529 609 41,000  Level Minneapolis Center
Mon 07:49:02 PM 46.3242 -103.0619 95° East 525 604 41,000  Level Minneapolis Center
Mon 07:50:04 PM 46.3083 -102.8092 95° East 527 606 41,000  Level Minneapolis Center
Mon 07:51:06 PM 46.2953 -102.5994 95° East 528 608 41,000  Level Minneapolis Center
Mon 07:52:07 PM 46.2814 -102.3875 95° East 531 611 41,000  Level Minneapolis Center
Mon 07:53:09 PM 46.2686 -102.1761 95° East 531 611 41,000  Level Minneapolis Center
Mon 07:54:11 PM 46.2528 -101.9536 96° East 532 612 41,000  Level Minneapolis Center
Mon 07:55:12 PM 46.2383 -101.7400 96° East 533 613 41,000  Level Minneapolis Center
Mon 07:56:14 PM 46.2233 -101.5272 96° East 533 613 41,000  Level Minneapolis Center
Mon 07:57:16 PM 46.2078 -101.3169 96° East 531 611 41,000  Level Minneapolis Center
Mon 07:58:18 PM 46.1914 -101.1056 96° East 529 609 41,000  Level Minneapolis Center
Mon 07:59:19 PM 46.1714 -100.8528 96° East 528 608 41,000  Level Minneapolis Center
Mon 08:00:33 PM 46.1508 -100.6008 97° East 527 606 41,000  Level Minneapolis Center
Mon 08:01:35 PM 46.1325 -100.3881 97° East 532 612 41,000  Level Minneapolis Center
Mon 08:02:37 PM 46.1144 -100.1761 97° East 531 611 41,000  Level Minneapolis Center
Mon 08:03:38 PM 46.0964 -99.9639 97° East 532 612 41,000  Level Minneapolis Center
Mon 08:04:52 PM 46.0739 -99.7086 97° East 533 613 41,000  Level Minneapolis Center
Mon 08:05:54 PM 46.0542 -99.4964 98° East 534 615 41,000  Level Minneapolis Center
Mon 08:06:56 PM 46.0347 -99.2842 97° East 533 613 41,000 -98 Level Minneapolis Center
Mon 08:07:57 PM 46.0108 -99.0278 98° East 535 616 40,800 -390 Descending Minneapolis Center
Mon 08:08:59 PM 45.9894 -98.8167 98° East 534 615 40,200 -581 Descending Minneapolis Center
Mon 08:10:01 PM 45.9694 -98.6047 98° East 534 615 39,600 -529 Descending Minneapolis Center
Mon 08:11:15 PM 45.9481 -98.3936 98° East 535 616 39,000 -265 Descending Minneapolis Center
Mon 08:12:17 PM 45.9217 -98.1375 98° East 538 619 39,000  Level Minneapolis Center
Mon 08:13:18 PM 45.8994 -97.9336 99° East 542 624 39,000  Level Minneapolis Center
Mon 08:14:20 PM 45.8769 -97.7203 99° East 544 626 39,000  Level Minneapolis Center
Mon 08:15:22 PM 45.8508 -97.4842 99° East 540 621 39,000  Level Minneapolis Center
Mon 08:16:24 PM 45.8269 -97.2708 99° East 542 624 39,000  Level Minneapolis Center
Mon 08:17:25 PM 45.8039 -97.0583 99° East 540 621 39,000  Level Minneapolis Center
Mon 08:18:27 PM 45.7736 -96.8056 100° East 538 619 39,000  Level Minneapolis Center
Mon 08:19:29 PM 45.7475 -96.5956 100° East 536 617 39,000  Level Minneapolis Center
Mon 08:20:31 PM 45.7233 -96.3839 99° East 538 619 39,000  Level Minneapolis Center
Mon 08:21:32 PM 45.6989 -96.1725 99° East 539 620 39,000  Level Minneapolis Center
Mon 08:22:34 PM 45.6725 -95.9644 100° East 533 613 39,000  Level Minneapolis Center
Mon 08:23:36 PM 45.6467 -95.7522 100° East 538 619 39,000  Level Minneapolis Center
Mon 08:24:38 PM 45.6203 -95.5425 100° East 537 618 39,000  Level Minneapolis Center
Mon 08:25:40 PM 45.5925 -95.3317 101° East 539 620 39,000  Level Minneapolis Center
Mon 08:26:41 PM 45.5606 -95.0806 100° East 538 619 39,000  Level Minneapolis Center
Mon 08:27:43 PM 45.5319 -94.8714 101° East 538 619 39,000  Level Minneapolis Center
Mon 08:28:45 PM 45.5056 -94.6631 100° East 536 617 39,000  Level Minneapolis Center
Mon 08:29:47 PM 45.4767 -94.4556 101° East 536 617 39,000  Level Minneapolis Center
Mon 08:30:49 PM 45.4475 -94.2497 101° East 534 615 39,000  Level Minneapolis Center
Mon 08:31:50 PM 45.4181 -94.0406 101° East 537 618 39,000  Level Minneapolis Center
Mon 08:32:52 PM 45.3875 -93.8294 102° East 543 625 39,000  Level Minneapolis Center
Mon 08:33:54 PM 45.3514 -93.5786 101° East 541 623 39,000  Level Minneapolis Center
Mon 08:34:56 PM 45.3208 -93.3694 102° East 540 621 39,000  Level Minneapolis Center
Mon 08:35:58 PM 45.2889 -93.1592 102° East 542 624 39,000  Level Minneapolis Center
Mon 08:37:00 PM 45.2572 -92.9522 102° East 536 617 39,000  Level Minneapolis Center
Mon 08:38:02 PM 45.2256 -92.7431 102° East 539 620 39,000  Level Minneapolis Center
Mon 08:39:04 PM 45.1933 -92.5342 102° East 540 621 39,000  Level Minneapolis Center
Mon 08:40:06 PM 45.1600 -92.3275 103° East 539 620 39,000  Level Minneapolis Center
Mon 08:41:08 PM 45.1211 -92.0778 102° East 541 623 39,000  Level Minneapolis Center
Mon 08:42:10 PM 45.0864 -91.8706 103° East 541 623 39,000  Level Minneapolis Center
Mon 08:43:12 PM 45.0533 -91.6650 103° East 540 621 39,000  Level Minneapolis Center
Mon 08:44:14 PM 45.0181 -91.4586 104° East 540 621 39,000  Level Minneapolis Center
Mon 08:45:15 PM 44.9911 -91.2950 103° East 540 621 39,000  Level Minneapolis Center
Mon 08:46:17 PM 44.9506 -91.0481 103° East 539 620 39,000  Level Minneapolis Center
Mon 08:47:19 PM 44.9139 -90.8333 103° East 543 625 39,000  Level Minneapolis Center
Mon 08:48:21 PM 44.8781 -90.6292 104° East 540 621 39,000  Level Minneapolis Center
Mon 08:49:23 PM 44.8353 -90.3833 104° East 541 623 39,000  Level Minneapolis Center
Mon 08:50:25 PM 44.7994 -90.1775 104° East 538 619 39,000  Level Minneapolis Center
Mon 08:51:27 PM 44.7611 -89.9722 105° East 540 621 39,000  Level Minneapolis Center
Mon 08:52:29 PM 44.7239 -89.7678 104° East 540 621 39,000  Level Minneapolis Center
Mon 08:53:31 PM 44.6864 -89.5636 104° East 539 620 39,000  Level Minneapolis Center
Mon 08:54:33 PM 44.6433 -89.3253 104° East 539 620 39,000  Level Minneapolis Center
Mon 08:55:35 PM 44.6044 -89.1219 105° East 539 620 39,000  Level Minneapolis Center
Mon 08:56:37 PM 44.5656 -88.9197 105° East 537 618 39,000  Level Minneapolis Center
Mon 08:57:39 PM 44.5267 -88.7158 105° East 540 621 39,000  Level Minneapolis Center
Mon 08:58:41 PM 44.4872 -88.5122 105° East 540 621 39,000  Level Minneapolis Center
Mon 08:59:43 PM 44.4478 -88.3086 105° East 541 623 39,000  Level Minneapolis Center
Mon 09:00:45 PM 44.4072 -88.1053 106° East 541 623 39,000  Level Minneapolis Center
Mon 09:01:59 PM 44.3583 -87.8675 106° East 544 626 39,000  Level Minneapolis Center
Mon 09:03:02 PM 44.3103 -87.6303 106° East 543 625 39,000  Level Minneapolis Center
Mon 09:04:04 PM 44.2678 -87.4278 106° East 543 625 39,000  Level Minneapolis Center
Mon 09:05:06 PM 44.2256 -87.2267 106° East 541 623 39,000  Level Minneapolis Center
Mon 09:06:20 PM 44.1825 -87.0197 106° East 537 618 39,000  Level Minneapolis Center
Mon 09:07:22 PM 44.1317 -86.7786 106° East 536 617 39,000  Level Minneapolis Center
Mon 09:08:24 PM 44.0886 -86.5781 107° East 540 621 39,000  Level Minneapolis Center
Mon 09:09:26 PM 44.0461 -86.3792 106° East 537 618 39,000  Level Minneapolis Center
Mon 09:10:28 PM 43.9947 -86.1417 107° East 534 615 39,000  Level Minneapolis Center
Mon 09:11:30 PM 43.9503 -85.9422 107° East 538 619 39,000  Level Minneapolis Center
Mon 09:12:32 PM 43.9067 -85.7436 107° East 538 619 39,000  Level Minneapolis Center
Mon 09:13:34 PM 43.8625 -85.5467 107° East 536 617 39,000  Level Minneapolis Center
Mon 09:14:36 PM 43.8183 -85.3489 107° East 535 616 39,000  Level Minneapolis Center
Mon 09:15:38 PM 43.7725 -85.1511 108° East 538 619 39,000  Level Minneapolis Center
Mon 09:16:40 PM 43.7272 -84.9536 108° East 539 620 39,000  Level Minneapolis Center
Mon 09:17:42 PM 43.6719 -84.7172 108° East 539 620 39,000  Level Minneapolis Center
Mon 09:18:44 PM 43.6264 -84.5197 108° East 540 621 39,000  Level Minneapolis Center
Mon 09:19:46 PM 43.5794 -84.3233 108° East 539 620 39,000  Level Minneapolis Center
Mon 09:20:21 PM 43.5458 -84.1950 110° East 534 615 39,000  Level Cleveland Center
Mon 09:21:21 PM 43.4956 -83.9944 109° East 534 615 39,000  Level Cleveland Center
Mon 09:22:21 PM 43.4547 -83.8206 108° East 529 609 39,000  Level Cleveland Center
Mon 09:23:21 PM 43.4078 -83.6294 109° East 534 615 39,000  Level Cleveland Center
Mon 09:24:21 PM 43.3606 -83.4386 109° East 534 615 39,000  Level Cleveland Center
Mon 09:25:21 PM 43.3131 -83.2481 109° East 534 615 39,000  Level Cleveland Center
Mon 09:26:21 PM 43.2672 -83.0636 109° East 529 609 39,000  Level Cleveland Center
Mon 09:27:21 PM 43.2150 -82.8592 109° East 523 602 39,000  Level Cleveland Center
Mon 09:28:21 PM 43.1686 -82.6753 109° East 517 595 39,000  Level Cleveland Center
Mon 09:28:42 PM 43.1500 -82.6000 109° East 520 598 39,000  Level Toronto Center
Mon 09:29:42 PM 43.1167 -82.4000 103° East 500 575 39,000  Level Toronto Center
Mon 09:30:42 PM 43.1000 -82.2333 98° East 490 564 39,000  Level Toronto Center
Mon 09:31:42 PM 43.0833 -82.0333 96° East 490 564 39,000 -100 Level Toronto Center
Mon 09:32:42 PM 43.0833 -81.8500 90° East 490 564 38,800 -600 Descending Toronto Center
Mon 09:33:42 PM 43.0667 -81.6833 98° East 490 564 37,800 -950 Descending Toronto Center
Mon 09:34:42 PM 43.0500 -81.4833 96° East 500 575 36,900 -1,000 Descending Toronto Center
Mon 09:35:42 PM 43.0333 -81.3000 97° East 510 587 35,800 -950 Descending Toronto Center
Mon 09:36:42 PM 43.0000 -81.1000 103° East 510 587 35,000 -400 Descending Toronto Center
Mon 09:37:42 PM 42.9833 -80.9167 97° East 520 598 35,000  Level Toronto Center
Mon 09:38:42 PM 42.9833 -80.7000 90° East 520 598 35,000  Level Toronto Center
Mon 09:39:42 PM 42.9667 -80.5000 96° East 510 587 35,000  Level Toronto Center
Mon 09:40:42 PM 42.9333 -80.3167 104° East 510 587 35,000  Level Toronto Center
Mon 09:41:42 PM 42.9167 -80.1333 97° East 510 587 35,000  Level Toronto Center
Mon 09:42:42 PM 42.9000 -79.9500 97° East 510 587 35,000  Level Toronto Center
Mon 09:43:42 PM 42.8833 -79.7500 96° East 510 587 35,000  Level Toronto Center
Mon 09:44:42 PM 42.8667 -79.5667 97° East 490 564 35,000  Level Toronto Center
Mon 09:45:33 PM 42.8611 -79.4503 94° East 494 568 35,000  Level Cleveland Center
Mon 09:46:33 PM 42.8403 -79.2636 99° East 489 563 35,000  Level Cleveland Center
Mon 09:47:33 PM 42.8172 -79.0831 100° East 489 563 35,000  Level Cleveland Center
Mon 09:48:33 PM 42.7961 -78.8969 99° East 489 563 35,000  Level Cleveland Center
Mon 09:49:33 PM 42.7744 -78.7081 99° East 489 563 35,000  Level Cleveland Center
Mon 09:50:33 PM 42.7544 -78.5192 98° East 495 570 35,000  Level Cleveland Center
Mon 09:51:33 PM 42.7322 -78.3333 99° East 500 575 35,000  Level Cleveland Center
Mon 09:52:33 PM 42.7097 -78.1447 99° East 500 575 35,000  Level Cleveland Center
Mon 09:53:33 PM 42.6867 -77.9564 99° East 505 581 35,000  Level Cleveland Center
Mon 09:54:33 PM 42.6636 -77.7708 100° East 505 581 35,000  Level Cleveland Center
Mon 09:55:33 PM 42.6400 -77.5828 100° East 500 575 35,000 -325 Level Cleveland Center
Mon 09:57:56 PM 42.5814 -77.1133 99° East 497 572 33,900 -591 Descending Boston Center
Mon 09:58:56 PM 42.5558 -76.9225 100° East 502 578 33,000 -450 Descending Boston Center
Mon 09:59:56 PM 42.5317 -76.7375 100° East 507 583 33,000  Level Boston Center
Mon 10:00:56 PM 42.5056 -76.5439 100° East 507 583 33,000  Level Boston Center
Mon 10:01:56 PM 42.4725 -76.3561 103° East 507 583 33,000 -250 Level Boston Center
Mon 10:02:56 PM 42.4406 -76.1881 104° East 507 583 32,500 -750 Descending Boston Center
Mon 10:03:56 PM 42.3989 -75.9969 106° East 524 603 31,500 -1,300 Descending Boston Center
Mon 10:04:56 PM 42.3628 -75.8094 105° East 519 597 29,900 -1,700 Descending Boston Center
Mon 10:05:56 PM 42.3222 -75.6275 107° East 514 592 28,100 -2,000 Descending Boston Center
Mon 10:06:56 PM 42.2839 -75.4317 105° East 501 577 25,900 -2,100 Descending Boston Center
Mon 10:07:56 PM 42.2464 -75.2644 107° East 486 559 23,900 -1,800 Descending Boston Center
Mon 10:08:56 PM 42.2125 -75.1144 107° East 452 520 22,300 -1,650 Descending Boston Center
Mon 10:09:56 PM 42.1783 -74.9728 108° East 419 482 20,600 -1,700 Descending Boston Center
Mon 10:10:56 PM 42.1269 -74.8392 117° Southeast 405 466 18,900 -1,600 Descending Boston Center
Mon 10:11:56 PM 42.0733 -74.7111 119° Southeast 398 458 17,400 -1,350 Descending Boston Center
Mon 10:12:56 PM 42.0150 -74.5975 125° Southeast 398 458 16,200 -1,350 Descending Boston Center
Mon 10:13:56 PM 41.9317 -74.4911 136° Southeast 381 438 14,700 -1,400 Descending Boston Center
Mon 10:14:56 PM 41.8644 -74.4053 136° Southeast 381 438 13,400 -1,300 Descending Boston Center
Mon 10:15:56 PM 41.7806 -74.3053 138° Southeast 371 427 12,100 -1,250 Descending Boston Center
Mon 10:16:56 PM 41.7214 -74.2314 137° Southeast 346 398 10,900 -1,150 Descending Boston Center
Mon 10:17:56 PM 41.6539 -74.1489 138° Southeast 310 357 9,800 -900 Descending Boston Center
Mon 10:18:56 PM 41.5925 -74.0778 139° Southeast 298 343 9,100 -700 Descending Boston Center
Mon 10:20:00 PM 41.6355 -73.8826 73° East  Level FlightAware Approximate
Mon 10:27:00 PM 40.8078 -73.8256 217° Southwest  Level FlightAware Approximate
Mon 10:28:00 PM 40.7667 -73.8667 217° Southwest  Level FlightAware Approximate
Mon 10:29:00 PM 40.7772 -73.8726 217° Southwest  Level Estimated
Mon 10:30:00 PM 40.7772 -73.8726 217° Southwest  Level Estimated

Login

Don't have an account? Register now (free) for customized features, flight alerts, and more!